Rolla, North Dakota
Current Conditions -  °F | °C
As of 9:55 PM on Tuesday 27 Jan 2015 (Local Time) from K06D Reporting Station
Moderate Fog Moderate Fog  
Wind Chill: -5°   Ceiling: 200
Heat Index: -1°   Visibility: 0mi
Dew Point: -1°   Wind: 7mph
Humidity: 100%   Direction: 150°SSE
Pressure: 29.79"   Gusts: NA
Location:  48.86°N, 99.62°W
Report Text: K06D 280355Z AUTO 15006KT M1/4SM FZFG OVC002 M01/M01 A2979 RMK AO2
Loading
Personal Weather Stations






























Interactive Weather Map New forecast layout! Learn more

10-Day Weather Forecast

Advertisements
Track Severe Weather on mobile